createdAt,value
2019-02-24T00:00:43.388Z,99.90
2019-02-24T00:14:55.447Z,99.90
2019-02-24T00:17:33.655Z,99.90
2019-02-24T00:20:48.020Z,99.90
2019-02-24T00:23:47.549Z,99.90
2019-02-24T00:26:28.039Z,99.90
2019-02-24T00:29:03.984Z,99.90
2019-02-24T00:31:53.112Z,99.90
2019-02-24T00:34:35.211Z,99.90
2019-02-24T00:37:17.067Z,99.90
2019-02-24T00:40:05.914Z,99.90
2019-02-24T00:42:40.092Z,99.90
2019-02-24T00:45:21.788Z,99.90
2019-02-24T00:48:06.804Z,99.90
2019-02-24T00:50:51.990Z,99.90
2019-02-24T00:53:37.088Z,99.90
2019-02-24T00:56:23.181Z,99.90
2019-02-24T00:59:05.137Z,99.90
2019-02-24T01:01:46.994Z,99.90
2019-02-24T01:04:36.465Z,99.90
2019-02-24T01:07:29.633Z,99.90
2019-02-24T01:10:18.823Z,99.90
2019-02-24T01:12:57.813Z,99.90
2019-02-24T01:15:46.896Z,99.90
2019-02-24T01:18:28.592Z,99.90
2019-02-24T01:21:06.307Z,99.90
2019-02-24T01:23:57.589Z,99.90
2019-02-24T01:26:31.403Z,99.90
2019-02-24T01:29:13.104Z,99.90
2019-02-24T01:31:57.569Z,99.90
2019-02-24T01:34:40.045Z,99.90
2019-02-24T01:37:20.486Z,99.90
2019-02-24T01:40:01.110Z,99.90
2019-02-24T01:42:46.598Z,99.90
2019-02-24T01:45:26.024Z,99.90
2019-02-24T01:48:08.844Z,99.90
2019-02-24T01:50:51.044Z,99.90
2019-02-24T01:53:40.588Z,99.90
2019-02-24T01:56:21.683Z,99.90
2019-02-24T01:59:01.518Z,99.90
2019-02-24T02:01:43.323Z,99.90
2019-02-24T02:04:31.444Z,99.90
2019-02-24T02:07:09.152Z,99.90
2019-02-24T02:09:48.745Z,99.90
2019-02-24T02:12:32.534Z,99.90
2019-02-24T02:15:21.822Z,99.90
2019-02-24T02:18:03.888Z,99.90
2019-02-24T02:20:44.254Z,99.90
2019-02-24T02:23:28.515Z,99.90
2019-02-24T02:26:06.164Z,99.90
2019-02-24T02:28:51.640Z,99.90
2019-02-24T02:31:40.576Z,99.90
2019-02-24T02:34:22.712Z,99.90
2019-02-24T02:37:06.648Z,99.90
2019-02-24T02:39:42.712Z,99.90
2019-02-24T02:42:27.515Z,99.90
2019-02-24T02:45:08.305Z,99.90
2019-02-24T02:47:50.727Z,99.90
2019-02-24T02:50:27.381Z,99.90
2019-02-24T02:53:15.138Z,99.90
2019-02-24T02:56:02.883Z,99.90
2019-02-24T02:58:37.707Z,99.90
2019-02-24T03:01:15.887Z,99.90
2019-02-24T03:03:59.304Z,99.90
2019-02-24T03:06:48.668Z,99.90
2019-02-24T03:09:30.666Z,99.90
2019-02-24T03:12:13.710Z,99.90
2019-02-24T03:14:57.299Z,99.90
2019-02-24T03:17:46.387Z,99.90
2019-02-24T03:20:21.025Z,99.90
2019-02-24T03:23:03.835Z,99.90
2019-02-24T03:25:46.789Z,99.90
2019-02-24T03:28:27.804Z,99.90
2019-02-24T03:31:16.802Z,99.90
2019-02-24T03:33:59.560Z,99.90
2019-02-24T03:36:48.876Z,99.90
2019-02-24T03:39:22.411Z,99.90
2019-02-24T03:42:09.055Z,99.90
2019-02-24T03:44:47.815Z,99.90
2019-02-24T03:47:28.994Z,99.90
2019-02-24T03:50:11.356Z,99.90
2019-02-24T03:52:54.992Z,99.90
2019-02-24T03:55:40.043Z,99.90
2019-02-24T03:58:23.616Z,99.90
2019-02-24T04:01:03.311Z,99.90
2019-02-24T04:03:46.923Z,99.90
2019-02-24T04:06:30.055Z,99.90
2019-02-24T04:09:12.378Z,99.90
2019-02-24T04:11:54.099Z,99.90
2019-02-24T04:14:43.035Z,99.90
2019-02-24T04:17:22.190Z,99.90
2019-02-24T04:20:13.020Z,99.90
2019-02-24T04:22:45.871Z,99.90
2019-02-24T04:25:26.187Z,99.90
2019-02-24T04:28:06.132Z,99.90
2019-02-24T04:30:50.889Z,99.90
2019-02-24T04:33:38.059Z,99.90
2019-02-24T04:36:19.513Z,99.90
2019-02-24T04:38:58.765Z,99.90
2019-02-24T04:41:47.837Z,99.90
2019-02-24T04:44:31.180Z,99.90
2019-02-24T04:58:45.335Z,99.90
2019-02-24T05:02:13.964Z,99.90
2019-02-24T05:03:59.230Z,99.90
2019-02-24T05:06:56.177Z,99.90
2019-02-24T05:09:57.943Z,99.90
2019-02-24T05:12:09.014Z,99.90
2019-02-24T05:16:12.160Z,99.90
2019-02-24T05:17:45.999Z,99.90
2019-02-24T05:20:16.131Z,99.90
2019-02-24T05:23:54.352Z,99.90
2019-02-24T05:25:44.001Z,99.90
2019-02-24T05:28:21.231Z,99.90
2019-02-24T05:31:12.352Z,99.90
2019-02-24T05:33:46.858Z,99.90
2019-02-24T05:36:37.704Z,99.90
2019-02-24T05:39:12.291Z,99.90
2019-02-24T05:41:56.302Z,99.90
2019-02-24T05:44:39.277Z,99.90
2019-02-24T05:47:39.806Z,99.90
2019-02-24T05:50:21.907Z,99.90
2019-02-24T05:54:04.146Z,99.90
2019-02-24T05:55:22.430Z,99.90
2019-02-24T05:58:11.595Z,99.90
2019-02-24T06:00:52.466Z,99.90
2019-02-24T06:03:33.126Z,99.90
2019-02-24T06:07:07.972Z,99.90
2019-02-24T06:08:57.529Z,99.90
2019-02-24T06:11:37.729Z,99.90
2019-02-24T06:14:26.925Z,99.90
2019-02-24T06:17:01.395Z,99.90
2019-02-24T06:19:44.818Z,99.90
2019-02-24T06:22:26.592Z,99.90
2019-02-24T06:25:22.703Z,99.90
2019-02-24T06:27:55.421Z,99.90
2019-02-24T06:30:29.785Z,99.90
2019-02-24T06:32:59.794Z,99.90
2019-02-24T06:35:31.284Z,99.90
2019-02-24T06:38:07.147Z,99.90
2019-02-24T06:40:50.553Z,99.90
2019-02-24T06:43:34.816Z,99.90
2019-02-24T06:46:18.905Z,99.90
2019-02-24T06:49:06.658Z,99.90
2019-02-24T06:51:41.047Z,99.90
2019-02-24T06:54:24.005Z,99.90
2019-02-24T06:57:13.070Z,99.90
2019-02-24T06:59:49.446Z,99.90
2019-02-24T07:04:59.182Z,99.90
2019-02-24T07:07:38.387Z,99.90
2019-02-24T07:10:08.831Z,99.90
2019-02-24T07:12:47.659Z,99.90
2019-02-24T07:17:45.454Z,99.90
2019-02-24T07:20:44.049Z,99.90
2019-02-24T07:23:28.919Z,99.90
2019-02-24T07:25:54.617Z,99.90
2019-02-24T07:28:35.696Z,99.90
2019-02-24T07:31:28.214Z,99.90
2019-02-24T07:34:17.803Z,99.90
2019-02-24T07:37:15.567Z,99.90
2019-02-24T07:40:00.582Z,99.90
2019-02-24T07:42:48.421Z,99.90
2019-02-24T07:45:16.438Z,99.90
2019-02-24T07:47:46.742Z,99.90
2019-02-24T07:50:38.570Z,99.90
2019-02-24T07:53:18.956Z,99.90
2019-02-24T07:55:50.135Z,99.90
2019-02-24T07:58:37.935Z,99.90
2019-02-24T08:01:23.588Z,99.90
2019-02-24T08:04:06.200Z,99.90
2019-02-24T08:06:46.696Z,99.90
2019-02-24T08:09:27.949Z,99.90
2019-02-24T08:12:17.858Z,99.90
2019-02-24T08:14:52.563Z,99.90
2019-02-24T08:17:36.272Z,99.90
2019-02-24T08:20:21.292Z,99.90
2019-02-24T08:23:13.091Z,99.90
2019-02-24T08:25:45.653Z,99.90
2019-02-24T08:28:34.629Z,99.90
2019-02-24T08:31:11.444Z,99.90
2019-02-24T08:33:52.995Z,99.90
2019-02-24T08:36:41.716Z,99.90
2019-02-24T08:39:25.653Z,99.90
2019-02-24T08:42:01.853Z,99.90
2019-02-24T08:44:58.864Z,99.90
2019-02-24T08:47:50.536Z,99.90
2019-02-24T08:53:00.253Z,99.90
2019-02-24T08:55:30.455Z,99.90
2019-02-24T08:58:29.575Z,99.90
2019-02-24T09:01:32.044Z,99.90
2019-02-24T09:04:23.484Z,99.90
2019-02-24T09:07:21.139Z,99.90
2019-02-24T09:10:25.419Z,99.90
2019-02-24T09:13:21.853Z,99.90
2019-02-24T09:16:24.101Z,99.90
2019-02-24T09:19:23.930Z,99.90
2019-02-24T09:22:33.897Z,99.90
2019-02-24T09:24:34.360Z,99.90
2019-02-24T09:26:59.887Z,99.90
2019-02-24T09:29:53.240Z,99.90
2019-02-24T09:32:49.519Z,99.90
2019-02-24T09:38:01.594Z,99.90
2019-02-24T09:40:31.613Z,99.90
2019-02-24T09:43:15.889Z,99.90
2019-02-24T09:45:52.485Z,99.90
2019-02-24T09:50:55.887Z,99.90
2019-02-24T09:54:44.401Z,99.90
2019-02-24T09:59:42.101Z,99.90
2019-02-24T10:05:01.883Z,99.90
2019-02-24T10:07:32.380Z,99.90
2019-02-24T10:10:37.402Z,99.90
2019-02-24T10:14:17.005Z,99.90
2019-02-24T10:16:28.842Z,99.90
2019-02-24T10:21:35.363Z,99.90
2019-02-24T10:22:28.193Z,99.90
2019-02-24T10:25:28.340Z,99.90
2019-02-24T10:30:50.977Z,99.90
2019-02-24T10:36:16.983Z,99.90
2019-02-24T10:42:42.448Z,99.90
2019-02-24T10:44:30.505Z,99.90
2019-02-24T10:47:13.553Z,99.90
2019-02-24T10:50:00.332Z,99.90
2019-02-24T10:52:41.685Z,99.90
2019-02-24T10:55:42.646Z,99.90
2019-02-24T10:58:34.754Z,99.90
2019-02-24T11:01:00.396Z,99.90
2019-02-24T11:03:48.619Z,99.90
2019-02-24T11:06:33.760Z,99.90
2019-02-24T11:09:26.697Z,99.90
2019-02-24T11:12:17.390Z,99.90
2019-02-24T11:15:04.420Z,99.90
2019-02-24T11:17:50.747Z,99.90
2019-02-24T11:20:33.243Z,99.90
2019-02-24T11:23:12.356Z,99.90
2019-02-24T11:25:52.933Z,99.90
2019-02-24T11:28:33.947Z,99.90
2019-02-24T11:31:17.666Z,99.90
2019-02-24T11:34:00.644Z,99.90
2019-02-24T11:36:49.643Z,99.90
2019-02-24T11:39:28.888Z,99.90
2019-02-24T11:42:07.848Z,99.90
2019-02-24T11:44:55.564Z,99.90
2019-02-24T11:47:35.592Z,85.00
2019-02-24T11:50:16.399Z,84.80
2019-02-24T11:52:57.982Z,72.50
2019-02-24T11:55:38.762Z,66.00
2019-02-24T11:58:21.201Z,61.80
2019-02-24T12:01:07.868Z,59.80
2019-02-24T12:03:56.847Z,60.20
2019-02-24T12:06:37.153Z,57.30
2019-02-24T12:09:25.012Z,58.00
2019-02-24T12:12:06.801Z,59.20
2019-02-24T12:14:55.952Z,59.10
2019-02-24T12:17:28.764Z,57.10
2019-02-24T12:20:16.812Z,57.60
2019-02-24T12:23:04.826Z,58.20
2019-02-24T12:25:46.231Z,59.20
2019-02-24T12:28:31.476Z,60.40
2019-02-24T12:31:11.937Z,57.30
2019-02-24T12:33:52.840Z,58.50
2019-02-24T12:36:40.916Z,53.60
2019-02-24T12:39:22.058Z,52.70
2019-02-24T12:42:10.725Z,58.00
2019-02-24T12:45:05.247Z,57.20
2019-02-24T12:47:46.748Z,58.30
2019-02-24T12:50:23.677Z,56.00
2019-02-24T12:53:06.981Z,57.60
2019-02-24T12:55:57.019Z,55.10
2019-02-24T12:58:32.958Z,53.30
2019-02-24T13:01:22.544Z,55.10
2019-02-24T13:04:03.990Z,55.40
2019-02-24T13:06:47.112Z,53.60
2019-02-24T13:09:29.247Z,52.80
2019-02-24T13:12:10.007Z,56.10
2019-02-24T13:15:07.559Z,53.80
2019-02-24T13:18:02.202Z,54.00
2019-02-24T13:20:46.023Z,53.70
2019-02-24T13:23:28.726Z,53.10
2019-02-24T13:26:17.989Z,53.50
2019-02-24T13:28:57.108Z,55.20
2019-02-24T13:31:46.357Z,54.50
2019-02-24T13:34:14.562Z,54.20
2019-02-24T13:36:56.357Z,54.20
2019-02-24T13:39:21.823Z,53.90
2019-02-24T13:43:35.060Z,54.10
2019-02-24T13:45:02.280Z,54.90
2019-02-24T13:47:39.879Z,53.40
2019-02-24T13:50:09.991Z,54.70
2019-02-24T13:52:49.401Z,54.90
2019-02-24T13:55:37.766Z,55.30
2019-02-24T13:58:26.267Z,55.40
2019-02-24T14:01:05.427Z,54.60
2019-02-24T14:03:44.372Z,58.00
2019-02-24T14:06:14.821Z,55.90
2019-02-24T14:08:48.013Z,57.10
2019-02-24T14:11:21.816Z,55.60
2019-02-24T14:13:52.378Z,54.40
2019-02-24T14:16:31.071Z,57.10
2019-02-24T14:19:19.941Z,54.90
2019-02-24T14:22:12.120Z,55.70
2019-02-24T14:25:02.665Z,54.40
2019-02-24T14:27:52.718Z,55.20
2019-02-24T14:30:25.791Z,58.00
2019-02-24T14:32:55.824Z,56.30
2019-02-24T14:35:34.861Z,55.70
2019-02-24T14:38:04.994Z,56.30
2019-02-24T14:40:46.961Z,57.60
2019-02-24T14:43:35.415Z,56.50
2019-02-24T14:46:19.643Z,55.50
2019-02-24T14:49:08.967Z,55.40
2019-02-24T14:52:00.665Z,55.50
2019-02-24T14:54:52.887Z,54.90
2019-02-24T14:57:54.242Z,57.90
2019-02-24T15:00:41.999Z,59.00
2019-02-24T15:03:41.968Z,56.80
2019-02-24T15:05:56.295Z,58.20
2019-02-24T15:12:12.597Z,59.50
2019-02-24T15:14:15.686Z,58.90
2019-02-24T15:16:59.420Z,61.40
2019-02-24T15:19:29.470Z,61.00
2019-02-24T15:22:06.409Z,58.10
2019-02-24T15:24:37.823Z,55.90
2019-02-24T15:27:31.226Z,59.40
2019-02-24T15:30:15.070Z,57.80
2019-02-24T15:33:04.076Z,58.80
2019-02-24T15:35:43.851Z,57.80
2019-02-24T15:40:59.181Z,59.50
2019-02-24T15:43:33.561Z,59.40
2019-02-24T15:46:33.509Z,59.10
2019-02-24T15:49:43.959Z,59.20
2019-02-24T15:52:44.335Z,57.20
2019-02-24T15:54:36.277Z,59.80
2019-02-24T15:57:13.997Z,59.90
2019-02-24T16:01:04.969Z,59.60
2019-02-24T16:02:33.829Z,58.70
2019-02-24T16:05:21.441Z,59.60
2019-02-24T16:13:40.894Z,59.10
2019-02-24T16:19:28.221Z,60.20
2019-02-24T16:22:03.133Z,57.70
2019-02-24T16:24:34.715Z,57.60
2019-02-24T16:27:16.172Z,56.70
2019-02-24T16:29:51.404Z,59.20
2019-02-24T16:32:35.014Z,58.30
2019-02-24T16:35:06.947Z,58.60
2019-02-24T16:37:39.058Z,60.10
2019-02-24T16:41:08.951Z,59.50
2019-02-24T16:45:29.920Z,59.80
2019-02-24T16:48:07.297Z,62.70
2019-02-24T16:50:47.048Z,66.40
2019-02-24T16:53:17.173Z,65.00
2019-02-24T16:58:28.265Z,71.80
2019-02-24T17:01:01.150Z,74.30
2019-02-24T17:03:51.963Z,78.30
2019-02-24T17:06:30.224Z,76.50
2019-02-24T17:09:00.623Z,93.30
2019-02-24T17:11:29.916Z,99.90
2019-02-24T17:14:33.943Z,99.90
2019-02-24T17:16:47.038Z,99.90
2019-02-24T17:19:27.218Z,99.90
2019-02-24T17:21:57.298Z,99.90
2019-02-24T17:24:41.281Z,99.90
2019-02-24T17:27:18.843Z,99.90
2019-02-24T17:29:59.920Z,99.90
2019-02-24T17:32:43.967Z,99.90
2019-02-24T17:35:22.724Z,99.90
2019-02-24T17:38:11.749Z,99.90
2019-02-24T17:40:54.697Z,99.90
2019-02-24T17:43:31.703Z,99.90
2019-02-24T17:46:19.660Z,99.90
2019-02-24T17:48:55.084Z,99.90
2019-02-24T17:51:40.971Z,99.90
2019-02-24T17:54:27.940Z,99.90
2019-02-24T17:57:12.948Z,99.90
2019-02-24T18:00:02.396Z,99.90
2019-02-24T18:02:36.980Z,99.90
2019-02-24T18:05:13.926Z,99.90
2019-02-24T18:07:54.369Z,99.90
2019-02-24T18:10:45.493Z,99.90
2019-02-24T18:13:21.118Z,99.90
2019-02-24T18:16:10.303Z,99.90
2019-02-24T18:18:48.547Z,99.90
2019-02-24T18:21:31.408Z,99.90
2019-02-24T18:24:10.441Z,99.90
2019-02-24T18:26:58.248Z,99.90
2019-02-24T18:29:47.312Z,99.90
2019-02-24T18:32:19.148Z,99.90
2019-02-24T18:34:57.788Z,99.90
2019-02-24T18:37:52.858Z,99.90
2019-02-24T18:40:33.550Z,99.90
2019-02-24T18:43:12.630Z,99.90
2019-02-24T18:46:02.755Z,99.90
2019-02-24T18:48:47.730Z,99.90
2019-02-24T18:51:34.441Z,99.90
2019-02-24T18:54:18.947Z,99.90
2019-02-24T18:57:00.335Z,99.90
2019-02-24T18:59:39.887Z,99.90
2019-02-24T19:02:20.029Z,99.90
2019-02-24T19:05:12.081Z,99.90
2019-02-24T19:07:53.189Z,99.90
2019-02-24T19:10:42.623Z,99.90
2019-02-24T19:13:21.236Z,99.90
2019-02-24T19:16:10.795Z,99.90
2019-02-24T19:18:55.916Z,99.90
2019-02-24T19:21:30.732Z,99.90
2019-02-24T19:24:17.941Z,99.90
2019-02-24T19:26:57.421Z,99.90
2019-02-24T19:29:42.334Z,99.90
2019-02-24T19:32:25.287Z,99.90
2019-02-24T19:35:09.854Z,99.90
2019-02-24T19:37:56.185Z,99.90
2019-02-24T19:40:37.140Z,99.90
2019-02-24T19:43:22.154Z,99.90
2019-02-24T19:46:09.900Z,99.90
2019-02-24T19:48:46.567Z,99.90
2019-02-24T19:51:51.009Z,99.90
2019-02-24T19:54:21.358Z,99.90
2019-02-24T19:57:03.220Z,99.90
2019-02-24T19:59:46.773Z,99.90
2019-02-24T20:02:21.799Z,99.90
2019-02-24T20:05:12.441Z,99.90
2019-02-24T20:07:55.313Z,99.90
2019-02-24T20:10:47.062Z,99.90
2019-02-24T20:13:26.074Z,99.90
2019-02-24T20:16:06.865Z,99.90
2019-02-24T20:18:44.803Z,99.90
2019-02-24T20:21:28.086Z,99.90
2019-02-24T20:24:11.292Z,99.90
2019-02-24T20:26:57.826Z,99.90
2019-02-24T20:32:37.617Z,99.90
2019-02-24T20:37:07.408Z,99.90
2019-02-24T20:37:48.418Z,99.90
2019-02-24T20:40:23.311Z,99.90
2019-02-24T20:43:22.727Z,99.90
2019-02-24T20:45:53.169Z,99.90
2019-02-24T20:48:39.246Z,99.90
2019-02-24T20:51:32.612Z,99.90
2019-02-24T20:54:05.576Z,99.90
2019-02-24T20:56:45.313Z,99.90
2019-02-24T20:59:28.862Z,99.90
2019-02-24T21:05:09.053Z,99.90
2019-02-24T21:07:36.923Z,99.90
2019-02-24T21:10:16.945Z,99.90
2019-02-24T21:12:56.374Z,99.90
2019-02-24T21:15:33.746Z,99.90
2019-02-24T21:18:18.554Z,99.90
2019-02-24T21:21:00.971Z,99.90
2019-02-24T21:23:41.493Z,99.90
2019-02-24T21:26:30.806Z,99.90
2019-02-24T21:29:08.386Z,99.90
2019-02-24T21:32:02.953Z,99.90
2019-02-24T21:34:37.813Z,99.90
2019-02-24T21:37:18.614Z,99.90
2019-02-24T21:40:09.676Z,99.90
2019-02-24T21:42:36.991Z,99.90
2019-02-24T21:45:31.092Z,99.90
2019-02-24T21:48:03.791Z,99.90
2019-02-24T21:50:45.369Z,99.90
2019-02-24T21:53:28.224Z,99.90
2019-02-24T21:56:08.471Z,99.90
2019-02-24T21:58:38.923Z,99.90
2019-02-24T22:01:14.658Z,99.90
2019-02-24T22:03:56.981Z,99.90
2019-02-24T22:06:44.859Z,99.90
2019-02-24T22:09:22.065Z,99.90
2019-02-24T22:12:04.752Z,99.90
2019-02-24T22:14:52.386Z,99.90
2019-02-24T22:17:34.466Z,99.90
2019-02-24T22:20:01.211Z,99.90
2019-02-24T22:23:42.628Z,99.90
2019-02-24T22:25:01.911Z,99.90
2019-02-24T22:27:37.627Z,99.90
2019-02-24T22:30:19.889Z,99.90
2019-02-24T22:32:49.683Z,99.90
2019-02-24T22:35:23.764Z,99.90
2019-02-24T22:37:59.021Z,99.90
2019-02-24T22:43:46.900Z,99.90
2019-02-24T22:46:26.826Z,99.90
2019-02-24T22:48:55.772Z,99.90
2019-02-24T22:51:22.566Z,99.90
2019-02-24T22:54:02.911Z,99.90
2019-02-24T22:56:44.413Z,99.90
2019-02-24T22:59:33.349Z,99.90
2019-02-24T23:02:20.182Z,99.90
2019-02-24T23:05:26.372Z,99.90
2019-02-24T23:09:20.862Z,99.90
2019-02-24T23:13:49.175Z,99.90
2019-02-24T23:16:51.226Z,99.90
2019-02-24T23:19:28.621Z,99.90
2019-02-24T23:22:11.431Z,99.90
2019-02-24T23:25:03.033Z,99.90
2019-02-24T23:27:43.230Z,99.90
2019-02-24T23:30:21.061Z,99.90
2019-02-24T23:33:08.756Z,99.90
2019-02-24T23:35:49.073Z,99.90
2019-02-24T23:38:25.118Z,99.90
2019-02-24T23:41:24.394Z,99.90
2019-02-24T23:44:25.571Z,99.90
2019-02-24T23:47:01.594Z,99.90
2019-02-24T23:49:05.945Z,99.90
2019-02-24T23:51:35.873Z,99.90
2019-02-24T23:54:16.932Z,99.90
2019-02-24T23:57:04.444Z,99.90
2019-02-24T23:59:52.787Z,99.90
